sensor_id;sensor_type;location;lat;lon;timestamp;P1;durP1;ratioP1;P2;durP2;ratioP2
57567;SDS011;43403;51.948;5.922;2022-08-06T00:02:19;4.95;;;1.23;;
57567;SDS011;43403;51.948;5.922;2022-08-06T00:04:51;5.18;;;1.40;;
57567;SDS011;43403;51.948;5.922;2022-08-06T00:07:18;6.55;;;1.23;;
57567;SDS011;43403;51.948;5.922;2022-08-06T00:09:51;4.18;;;1.48;;
57567;SDS011;43403;51.948;5.922;2022-08-06T00:12:25;5.00;;;1.30;;
57567;SDS011;43403;51.948;5.922;2022-08-06T00:14:55;4.85;;;1.30;;
57567;SDS011;43403;51.948;5.922;2022-08-06T00:17:23;5.63;;;1.15;;
57567;SDS011;43403;51.948;5.922;2022-08-06T00:19:56;5.28;;;1.33;;
57567;SDS011;43403;51.948;5.922;2022-08-06T00:22:26;3.28;;;1.30;;
57567;SDS011;43403;51.948;5.922;2022-08-06T00:24:56;6.28;;;1.40;;
57567;SDS011;43403;51.948;5.922;2022-08-06T00:27:23;7.63;;;1.30;;
57567;SDS011;43403;51.948;5.922;2022-08-06T00:30:00;6.32;;;1.35;;
57567;SDS011;43403;51.948;5.922;2022-08-06T00:32:31;4.57;;;1.30;;
57567;SDS011;43403;51.948;5.922;2022-08-06T00:34:58;6.85;;;1.20;;
57567;SDS011;43403;51.948;5.922;2022-08-06T00:37:25;4.93;;;1.58;;
57567;SDS011;43403;51.948;5.922;2022-08-06T00:40:14;9.35;;;1.52;;
57567;SDS011;43403;51.948;5.922;2022-08-06T00:42:50;2.65;;;1.10;;
57567;SDS011;43403;51.948;5.922;2022-08-06T00:45:19;4.85;;;1.30;;
57567;SDS011;43403;51.948;5.922;2022-08-06T00:47:50;6.93;;;1.20;;
57567;SDS011;43403;51.948;5.922;2022-08-06T00:50:32;5.38;;;1.30;;
57567;SDS011;43403;51.948;5.922;2022-08-06T00:53:00;6.75;;;1.40;;
57567;SDS011;43403;51.948;5.922;2022-08-06T00:55:29;3.25;;;1.30;;
57567;SDS011;43403;51.948;5.922;2022-08-06T00:58:01;6.78;;;1.30;;
57567;SDS011;43403;51.948;5.922;2022-08-06T01:00:28;3.47;;;1.08;;
57567;SDS011;43403;51.948;5.922;2022-08-06T01:02:56;3.70;;;1.33;;
57567;SDS011;43403;51.948;5.922;2022-08-06T01:05:23;5.32;;;1.40;;
57567;SDS011;43403;51.948;5.922;2022-08-06T01:08:10;5.05;;;1.50;;
57567;SDS011;43403;51.948;5.922;2022-08-06T01:10:39;7.90;;;1.67;;
57567;SDS011;43403;51.948;5.922;2022-08-06T01:13:08;7.28;;;1.60;;
57567;SDS011;43403;51.948;5.922;2022-08-06T01:15:51;5.28;;;1.50;;
57567;SDS011;43403;51.948;5.922;2022-08-06T01:18:37;4.13;;;1.35;;
57567;SDS011;43403;51.948;5.922;2022-08-06T01:21:23;8.70;;;1.85;;
57567;SDS011;43403;51.948;5.922;2022-08-06T01:27:37;5.00;;;1.30;;
57567;SDS011;43403;51.948;5.922;2022-08-06T01:30:16;3.45;;;1.10;;
57567;SDS011;43403;51.948;5.922;2022-08-06T01:32:55;6.05;;;1.30;;
57567;SDS011;43403;51.948;5.922;2022-08-06T01:35:36;5.82;;;1.55;;
57567;SDS011;43403;51.948;5.922;2022-08-06T01:38:22;6.43;;;1.60;;
57567;SDS011;43403;51.948;5.922;2022-08-06T01:40:52;3.72;;;1.30;;
57567;SDS011;43403;51.948;5.922;2022-08-06T01:43:21;6.00;;;1.70;;
57567;SDS011;43403;51.948;5.922;2022-08-06T01:46:09;3.63;;;1.35;;
57567;SDS011;43403;51.948;5.922;2022-08-06T01:48:41;4.72;;;1.30;;
57567;SDS011;43403;51.948;5.922;2022-08-06T01:51:10;4.25;;;1.50;;
57567;SDS011;43403;51.948;5.922;2022-08-06T01:53:57;5.80;;;1.80;;
57567;SDS011;43403;51.948;5.922;2022-08-06T01:56:34;6.20;;;1.50;;
57567;SDS011;43403;51.948;5.922;2022-08-06T01:59:25;4.45;;;1.27;;
57567;SDS011;43403;51.948;5.922;2022-08-06T02:01:57;5.88;;;1.55;;
57567;SDS011;43403;51.948;5.922;2022-08-06T02:04:27;5.70;;;1.80;;
57567;SDS011;43403;51.948;5.922;2022-08-06T02:07:05;4.00;;;1.50;;
57567;SDS011;43403;51.948;5.922;2022-08-06T02:09:54;5.50;;;1.67;;
57567;SDS011;43403;51.948;5.922;2022-08-06T02:12:23;5.95;;;1.35;;
57567;SDS011;43403;51.948;5.922;2022-08-06T02:20:11;7.05;;;1.30;;
57567;SDS011;43403;51.948;5.922;2022-08-06T02:23:00;5.80;;;1.40;;
57567;SDS011;43403;51.948;5.922;2022-08-06T02:25:30;3.05;;;1.20;;
57567;SDS011;43403;51.948;5.922;2022-08-06T02:27:59;2.17;;;1.15;;
57567;SDS011;43403;51.948;5.922;2022-08-06T02:30:28;6.80;;;1.60;;
57567;SDS011;43403;51.948;5.922;2022-08-06T02:33:02;5.45;;;1.55;;
57567;SDS011;43403;51.948;5.922;2022-08-06T02:35:36;5.20;;;1.30;;
57567;SDS011;43403;51.948;5.922;2022-08-06T02:38:26;5.47;;;1.33;;
57567;SDS011;43403;51.948;5.922;2022-08-06T02:41:00;4.90;;;1.40;;
57567;SDS011;43403;51.948;5.922;2022-08-06T02:43:37;4.57;;;1.45;;
57567;SDS011;43403;51.948;5.922;2022-08-06T02:48:42;7.93;;;1.58;;
57567;SDS011;43403;51.948;5.922;2022-08-06T02:51:15;7.43;;;1.30;;
57567;SDS011;43403;51.948;5.922;2022-08-06T02:54:10;4.28;;;1.60;;
57567;SDS011;43403;51.948;5.922;2022-08-06T02:56:42;4.53;;;1.08;;
57567;SDS011;43403;51.948;5.922;2022-08-06T02:59:15;6.18;;;1.48;;
57567;SDS011;43403;51.948;5.922;2022-08-06T03:01:49;7.70;;;1.30;;
57567;SDS011;43403;51.948;5.922;2022-08-06T03:04:19;6.40;;;1.45;;
57567;SDS011;43403;51.948;5.922;2022-08-06T03:06:58;5.63;;;1.40;;
57567;SDS011;43403;51.948;5.922;2022-08-06T03:09:49;2.88;;;1.27;;
57567;SDS011;43403;51.948;5.922;2022-08-06T03:12:17;6.20;;;1.65;;
57567;SDS011;43403;51.948;5.922;2022-08-06T03:14:56;3.65;;;1.33;;
57567;SDS011;43403;51.948;5.922;2022-08-06T03:17:34;5.07;;;2.00;;
57567;SDS011;43403;51.948;5.922;2022-08-06T03:20:03;5.75;;;1.65;;
57567;SDS011;43403;51.948;5.922;2022-08-06T03:22:41;6.43;;;1.58;;
57567;SDS011;43403;51.948;5.922;2022-08-06T03:25:10;3.08;;;1.30;;
57567;SDS011;43403;51.948;5.922;2022-08-06T03:27:40;2.78;;;1.40;;
57567;SDS011;43403;51.948;5.922;2022-08-06T03:30:14;4.03;;;1.30;;
57567;SDS011;43403;51.948;5.922;2022-08-06T03:32:58;4.25;;;1.58;;
57567;SDS011;43403;51.948;5.922;2022-08-06T03:35:48;5.10;;;1.67;;
57567;SDS011;43403;51.948;5.922;2022-08-06T03:38:19;5.93;;;1.65;;
57567;SDS011;43403;51.948;5.922;2022-08-06T03:40:53;5.28;;;1.40;;
57567;SDS011;43403;51.948;5.922;2022-08-06T03:43:20;6.28;;;1.77;;
57567;SDS011;43403;51.948;5.922;2022-08-06T03:45:55;6.85;;;1.40;;
57567;SDS011;43403;51.948;5.922;2022-08-06T03:48:27;4.63;;;1.30;;
57567;SDS011;43403;51.948;5.922;2022-08-06T03:51:02;7.63;;;1.55;;
57567;SDS011;43403;51.948;5.922;2022-08-06T03:53:35;5.40;;;1.33;;
57567;SDS011;43403;51.948;5.922;2022-08-06T03:56:10;3.10;;;1.40;;
57567;SDS011;43403;51.948;5.922;2022-08-06T03:58:43;4.47;;;1.60;;
57567;SDS011;43403;51.948;5.922;2022-08-06T04:01:14;5.35;;;1.58;;
57567;SDS011;43403;51.948;5.922;2022-08-06T04:03:45;4.63;;;1.83;;
57567;SDS011;43403;51.948;5.922;2022-08-06T04:06:14;3.42;;;1.75;;
57567;SDS011;43403;51.948;5.922;2022-08-06T04:08:45;5.30;;;1.75;;
57567;SDS011;43403;51.948;5.922;2022-08-06T04:11:14;5.25;;;1.75;;
57567;SDS011;43403;51.948;5.922;2022-08-06T04:14:02;7.05;;;1.80;;
57567;SDS011;43403;51.948;5.922;2022-08-06T04:16:34;5.57;;;1.88;;
57567;SDS011;43403;51.948;5.922;2022-08-06T04:19:05;4.50;;;1.90;;
57567;SDS011;43403;51.948;5.922;2022-08-06T04:21:34;4.03;;;1.60;;
57567;SDS011;43403;51.948;5.922;2022-08-06T04:24:21;9.38;;;1.83;;
57567;SDS011;43403;51.948;5.922;2022-08-06T04:26:55;5.85;;;1.85;;
57567;SDS011;43403;51.948;5.922;2022-08-06T04:29:25;4.00;;;1.70;;
57567;SDS011;43403;51.948;5.922;2022-08-06T04:32:13;4.47;;;1.58;;
57567;SDS011;43403;51.948;5.922;2022-08-06T04:34:45;5.72;;;2.88;;
57567;SDS011;43403;51.948;5.922;2022-08-06T04:37:33;6.72;;;1.85;;
57567;SDS011;43403;51.948;5.922;2022-08-06T04:40:06;5.75;;;1.85;;
57567;SDS011;43403;51.948;5.922;2022-08-06T04:42:40;5.53;;;1.90;;
57567;SDS011;43403;51.948;5.922;2022-08-06T04:45:07;7.70;;;2.00;;
57567;SDS011;43403;51.948;5.922;2022-08-06T04:47:55;6.28;;;2.30;;
57567;SDS011;43403;51.948;5.922;2022-08-06T04:50:23;5.05;;;1.73;;
57567;SDS011;43403;51.948;5.922;2022-08-06T04:52:49;3.75;;;1.83;;
57567;SDS011;43403;51.948;5.922;2022-08-06T04:55:18;5.03;;;1.90;;
57567;SDS011;43403;51.948;5.922;2022-08-06T04:57:58;6.85;;;1.83;;
57567;SDS011;43403;51.948;5.922;2022-08-06T05:00:35;7.80;;;2.03;;
57567;SDS011;43403;51.948;5.922;2022-08-06T05:03:24;4.82;;;2.03;;
57567;SDS011;43403;51.948;5.922;2022-08-06T05:06:54;4.03;;;1.90;;
57567;SDS011;43403;51.948;5.922;2022-08-06T05:09:20;6.35;;;2.75;;
57567;SDS011;43403;51.948;5.922;2022-08-06T05:17:51;5.78;;;2.03;;
57567;SDS011;43403;51.948;5.922;2022-08-06T05:20:25;3.25;;;1.70;;
57567;SDS011;43403;51.948;5.922;2022-08-06T05:23:11;7.28;;;2.45;;
57567;SDS011;43403;51.948;5.922;2022-08-06T05:25:45;3.33;;;2.35;;
57567;SDS011;43403;51.948;5.922;2022-08-06T05:28:21;6.28;;;1.90;;
57567;SDS011;43403;51.948;5.922;2022-08-06T05:30:53;4.32;;;1.85;;
57567;SDS011;43403;51.948;5.922;2022-08-06T05:33:23;5.85;;;1.92;;
57567;SDS011;43403;51.948;5.922;2022-08-06T05:35:55;3.78;;;1.70;;
57567;SDS011;43403;51.948;5.922;2022-08-06T05:38:30;4.07;;;1.75;;
57567;SDS011;43403;51.948;5.922;2022-08-06T05:41:03;6.93;;;2.00;;
57567;SDS011;43403;51.948;5.922;2022-08-06T05:43:32;5.60;;;2.00;;
57567;SDS011;43403;51.948;5.922;2022-08-06T05:46:20;5.45;;;2.05;;
57567;SDS011;43403;51.948;5.922;2022-08-06T05:51:33;5.18;;;1.73;;
57567;SDS011;43403;51.948;5.922;2022-08-06T05:54:12;5.07;;;2.03;;
57567;SDS011;43403;51.948;5.922;2022-08-06T05:56:43;6.13;;;1.88;;
57567;SDS011;43403;51.948;5.922;2022-08-06T05:59:20;4.40;;;1.83;;
57567;SDS011;43403;51.948;5.922;2022-08-06T06:02:04;5.32;;;1.88;;
57567;SDS011;43403;51.948;5.922;2022-08-06T06:07:00;14.85;;;2.58;;
57567;SDS011;43403;51.948;5.922;2022-08-06T06:09:33;5.07;;;1.75;;
57567;SDS011;43403;51.948;5.922;2022-08-06T06:12:21;7.38;;;1.63;;
57567;SDS011;43403;51.948;5.922;2022-08-06T06:14:58;7.18;;;1.70;;
57567;SDS011;43403;51.948;5.922;2022-08-06T06:23:38;1.90;;;1.05;;
57567;SDS011;43403;51.948;5.922;2022-08-06T06:26:28;4.13;;;1.60;;
57567;SDS011;43403;51.948;5.922;2022-08-06T06:29:14;8.80;;;1.63;;
57567;SDS011;43403;51.948;5.922;2022-08-06T06:35:09;4.55;;;1.30;;
57567;SDS011;43403;51.948;5.922;2022-08-06T06:46:46;3.40;;;1.00;;
57567;SDS011;43403;51.948;5.922;2022-08-06T06:49:29;6.47;;;1.05;;
57567;SDS011;43403;51.948;5.922;2022-08-06T06:52:24;2.67;;;0.90;;
57567;SDS011;43403;51.948;5.922;2022-08-06T06:55:07;3.17;;;0.93;;
57567;SDS011;43403;51.948;5.922;2022-08-06T06:57:44;3.50;;;0.90;;
57567;SDS011;43403;51.948;5.922;2022-08-06T07:00:17;4.13;;;1.00;;
57567;SDS011;43403;51.948;5.922;2022-08-06T07:03:04;2.55;;;0.75;;
57567;SDS011;43403;51.948;5.922;2022-08-06T07:05:35;3.75;;;0.95;;
57567;SDS011;43403;51.948;5.922;2022-08-06T07:08:24;5.00;;;1.17;;
57567;SDS011;43403;51.948;5.922;2022-08-06T07:11:03;3.13;;;0.80;;
57567;SDS011;43403;51.948;5.922;2022-08-06T07:13:32;9.60;;;1.35;;
57567;SDS011;43403;51.948;5.922;2022-08-06T07:16:17;5.43;;;0.77;;
57567;SDS011;43403;51.948;5.922;2022-08-06T07:19:01;2.65;;;0.70;;
57567;SDS011;43403;51.948;5.922;2022-08-06T07:21:30;3.03;;;0.73;;
57567;SDS011;43403;51.948;5.922;2022-08-06T07:23:57;2.88;;;0.70;;
57567;SDS011;43403;51.948;5.922;2022-08-06T07:26:45;2.70;;;0.52;;
57567;SDS011;43403;51.948;5.922;2022-08-06T07:29:17;3.03;;;0.80;;
57567;SDS011;43403;51.948;5.922;2022-08-06T07:34:53;2.15;;;1.00;;
57567;SDS011;43403;51.948;5.922;2022-08-06T07:37:21;3.28;;;0.63;;
57567;SDS011;43403;51.948;5.922;2022-08-06T07:39:51;1.77;;;0.80;;
57567;SDS011;43403;51.948;5.922;2022-08-06T07:42:20;9.60;;;1.10;;
57567;SDS011;43403;51.948;5.922;2022-08-06T07:44:51;7.22;;;0.90;;
57567;SDS011;43403;51.948;5.922;2022-08-06T07:47:24;3.88;;;1.05;;
57567;SDS011;43403;51.948;5.922;2022-08-06T07:50:13;3.17;;;0.70;;
57567;SDS011;43403;51.948;5.922;2022-08-06T07:52:41;2.30;;;0.70;;
57567;SDS011;43403;51.948;5.922;2022-08-06T07:55:09;5.65;;;1.00;;
57567;SDS011;43403;51.948;5.922;2022-08-06T07:57:40;3.67;;;0.70;;
57567;SDS011;43403;51.948;5.922;2022-08-06T08:00:21;3.92;;;0.90;;
57567;SDS011;43403;51.948;5.922;2022-08-06T08:03:01;2.35;;;0.75;;
57567;SDS011;43403;51.948;5.922;2022-08-06T08:06:08;6.68;;;0.82;;
57567;SDS011;43403;51.948;5.922;2022-08-06T08:08:51;1.75;;;0.60;;
57567;SDS011;43403;51.948;5.922;2022-08-06T08:11:22;1.30;;;0.55;;
57567;SDS011;43403;51.948;5.922;2022-08-06T08:14:10;2.75;;;0.60;;
57567;SDS011;43403;51.948;5.922;2022-08-06T08:16:40;4.38;;;0.73;;
57567;SDS011;43403;51.948;5.922;2022-08-06T08:19:20;2.95;;;0.70;;
57567;SDS011;43403;51.948;5.922;2022-08-06T08:21:50;1.60;;;0.40;;
57567;SDS011;43403;51.948;5.922;2022-08-06T08:24:18;3.25;;;0.63;;
57567;SDS011;43403;51.948;5.922;2022-08-06T08:26:44;2.80;;;0.60;;
57567;SDS011;43403;51.948;5.922;2022-08-06T08:29:30;1.60;;;0.55;;
57567;SDS011;43403;51.948;5.922;2022-08-06T08:32:00;4.97;;;0.90;;
57567;SDS011;43403;51.948;5.922;2022-08-06T08:34:30;1.95;;;0.57;;
57567;SDS011;43403;51.948;5.922;2022-08-06T08:36:58;2.85;;;0.70;;
57567;SDS011;43403;51.948;5.922;2022-08-06T08:39:25;3.97;;;1.00;;
57567;SDS011;43403;51.948;5.922;2022-08-06T08:42:10;3.22;;;0.77;;
57567;SDS011;43403;51.948;5.922;2022-08-06T08:44:57;3.08;;;0.90;;
57567;SDS011;43403;51.948;5.922;2022-08-06T08:50:11;1.58;;;0.60;;
57567;SDS011;43403;51.948;5.922;2022-08-06T08:52:43;1.23;;;0.60;;
57567;SDS011;43403;51.948;5.922;2022-08-06T08:55:15;3.65;;;0.50;;
57567;SDS011;43403;51.948;5.922;2022-08-06T08:58:04;2.55;;;0.77;;
57567;SDS011;43403;51.948;5.922;2022-08-06T09:00:51;2.88;;;0.70;;
57567;SDS011;43403;51.948;5.922;2022-08-06T09:03:20;2.00;;;0.65;;
57567;SDS011;43403;51.948;5.922;2022-08-06T09:05:48;3.85;;;0.98;;
57567;SDS011;43403;51.948;5.922;2022-08-06T09:08:18;2.20;;;0.60;;
57567;SDS011;43403;51.948;5.922;2022-08-06T09:11:05;3.70;;;0.68;;
57567;SDS011;43403;51.948;5.922;2022-08-06T09:13:52;2.47;;;0.83;;
57567;SDS011;43403;51.948;5.922;2022-08-06T09:16:25;2.50;;;0.65;;
57567;SDS011;43403;51.948;5.922;2022-08-06T09:18:57;2.00;;;0.55;;
57567;SDS011;43403;51.948;5.922;2022-08-06T09:21:29;4.15;;;0.93;;
57567;SDS011;43403;51.948;5.922;2022-08-06T09:23:57;2.35;;;0.52;;
57567;SDS011;43403;51.948;5.922;2022-08-06T09:26:30;1.08;;;0.60;;
57567;SDS011;43403;51.948;5.922;2022-08-06T09:29:20;2.95;;;0.77;;
57567;SDS011;43403;51.948;5.922;2022-08-06T09:31:57;1.83;;;0.65;;
57567;SDS011;43403;51.948;5.922;2022-08-06T09:34:58;4.63;;;0.80;;
57567;SDS011;43403;51.948;5.922;2022-08-06T09:37:27;3.72;;;0.90;;
57567;SDS011;43403;51.948;5.922;2022-08-06T09:40:16;3.55;;;0.90;;
57567;SDS011;43403;51.948;5.922;2022-08-06T09:42:46;2.45;;;0.73;;
57567;SDS011;43403;51.948;5.922;2022-08-06T09:45:19;3.55;;;0.82;;
57567;SDS011;43403;51.948;5.922;2022-08-06T09:48:07;3.90;;;0.80;;
57567;SDS011;43403;51.948;5.922;2022-08-06T09:50:47;1.90;;;0.70;;
57567;SDS011;43403;51.948;5.922;2022-08-06T09:53:16;3.58;;;0.60;;
57567;SDS011;43403;51.948;5.922;2022-08-06T09:55:47;2.92;;;0.60;;
57567;SDS011;43403;51.948;5.922;2022-08-06T09:58:14;1.43;;;0.60;;
57567;SDS011;43403;51.948;5.922;2022-08-06T10:00:52;4.25;;;0.82;;
57567;SDS011;43403;51.948;5.922;2022-08-06T10:03:19;2.67;;;0.70;;
57567;SDS011;43403;51.948;5.922;2022-08-06T10:06:06;1.67;;;0.73;;
57567;SDS011;43403;51.948;5.922;2022-08-06T10:08:36;1.33;;;0.70;;
57567;SDS011;43403;51.948;5.922;2022-08-06T10:11:04;3.50;;;0.80;;
57567;SDS011;43403;51.948;5.922;2022-08-06T10:13:33;2.08;;;0.55;;
57567;SDS011;43403;51.948;5.922;2022-08-06T10:16:16;2.70;;;0.70;;
57567;SDS011;43403;51.948;5.922;2022-08-06T10:18:46;1.23;;;0.60;;
57567;SDS011;43403;51.948;5.922;2022-08-06T10:24:06;1.95;;;0.50;;
57567;SDS011;43403;51.948;5.922;2022-08-06T10:26:33;2.38;;;0.50;;
57567;SDS011;43403;51.948;5.922;2022-08-06T10:29:03;2.35;;;0.70;;
57567;SDS011;43403;51.948;5.922;2022-08-06T10:31:32;2.75;;;0.95;;
57567;SDS011;43403;51.948;5.922;2022-08-06T10:36:50;3.05;;;0.70;;
57567;SDS011;43403;51.948;5.922;2022-08-06T10:39:27;3.05;;;0.70;;
57567;SDS011;43403;51.948;5.922;2022-08-06T10:42:19;1.42;;;0.70;;
57567;SDS011;43403;51.948;5.922;2022-08-06T10:44:48;1.98;;;0.85;;
57567;SDS011;43403;51.948;5.922;2022-08-06T10:47:19;3.13;;;0.63;;
57567;SDS011;43403;51.948;5.922;2022-08-06T10:50:07;3.85;;;0.80;;
57567;SDS011;43403;51.948;5.922;2022-08-06T10:52:54;3.00;;;0.77;;
57567;SDS011;43403;51.948;5.922;2022-08-06T10:55:21;2.40;;;0.63;;
57567;SDS011;43403;51.948;5.922;2022-08-06T10:57:48;1.95;;;0.77;;
57567;SDS011;43403;51.948;5.922;2022-08-06T11:00:17;1.48;;;0.60;;
57567;SDS011;43403;51.948;5.922;2022-08-06T11:05:43;1.90;;;0.73;;
57567;SDS011;43403;51.948;5.922;2022-08-06T11:11:23;1.70;;;0.60;;
57567;SDS011;43403;51.948;5.922;2022-08-06T11:14:09;2.30;;;0.60;;
57567;SDS011;43403;51.948;5.922;2022-08-06T11:16:54;2.10;;;0.70;;
57567;SDS011;43403;51.948;5.922;2022-08-06T11:25:04;1.95;;;0.60;;
57567;SDS011;43403;51.948;5.922;2022-08-06T11:27:52;2.60;;;0.85;;
57567;SDS011;43403;51.948;5.922;2022-08-06T11:33:06;1.90;;;0.60;;
57567;SDS011;43403;51.948;5.922;2022-08-06T11:38:16;2.00;;;0.50;;
57567;SDS011;43403;51.948;5.922;2022-08-06T11:46:33;2.45;;;0.70;;
57567;SDS011;43403;51.948;5.922;2022-08-06T11:49:12;2.08;;;0.90;;
57567;SDS011;43403;51.948;5.922;2022-08-06T11:51:49;1.75;;;0.57;;
57567;SDS011;43403;51.948;5.922;2022-08-06T11:54:32;1.52;;;0.70;;
57567;SDS011;43403;51.948;5.922;2022-08-06T12:01:56;2.20;;;0.70;;
57567;SDS011;43403;51.948;5.922;2022-08-06T12:09:59;2.40;;;0.60;;
57567;SDS011;43403;51.948;5.922;2022-08-06T12:14:54;2.97;;;0.80;;
57567;SDS011;43403;51.948;5.922;2022-08-06T12:20:09;1.73;;;0.63;;
57567;SDS011;43403;51.948;5.922;2022-08-06T12:22:48;3.17;;;0.80;;
57567;SDS011;43403;51.948;5.922;2022-08-06T12:25:18;3.38;;;0.82;;
57567;SDS011;43403;51.948;5.922;2022-08-06T12:27:45;3.08;;;0.82;;
57567;SDS011;43403;51.948;5.922;2022-08-06T12:30:20;1.83;;;0.80;;
57567;SDS011;43403;51.948;5.922;2022-08-06T12:33:03;1.27;;;0.60;;
57567;SDS011;43403;51.948;5.922;2022-08-06T12:35:50;2.67;;;1.25;;
57567;SDS011;43403;51.948;5.922;2022-08-06T12:38:19;2.67;;;0.70;;
57567;SDS011;43403;51.948;5.922;2022-08-06T12:43:22;1.77;;;0.80;;
57567;SDS011;43403;51.948;5.922;2022-08-06T12:46:08;2.55;;;1.00;;
57567;SDS011;43403;51.948;5.922;2022-08-06T12:48:49;2.47;;;1.00;;
57567;SDS011;43403;51.948;5.922;2022-08-06T12:51:17;1.85;;;0.77;;
57567;SDS011;43403;51.948;5.922;2022-08-06T12:56:24;2.88;;;0.80;;
57567;SDS011;43403;51.948;5.922;2022-08-06T12:58:56;6.18;;;0.82;;
57567;SDS011;43403;51.948;5.922;2022-08-06T13:01:24;2.45;;;0.85;;
57567;SDS011;43403;51.948;5.922;2022-08-06T13:04:13;1.52;;;0.70;;
57567;SDS011;43403;51.948;5.922;2022-08-06T13:06:43;2.05;;;0.85;;
57567;SDS011;43403;51.948;5.922;2022-08-06T13:09:14;2.75;;;0.95;;
57567;SDS011;43403;51.948;5.922;2022-08-06T13:11:40;2.05;;;0.80;;
57567;SDS011;43403;51.948;5.922;2022-08-06T13:14:12;1.40;;;0.67;;
57567;SDS011;43403;51.948;5.922;2022-08-06T13:16:44;4.13;;;0.80;;
57567;SDS011;43403;51.948;5.922;2022-08-06T13:22:04;2.80;;;0.85;;
57567;SDS011;43403;51.948;5.922;2022-08-06T13:24:34;1.90;;;0.60;;
57567;SDS011;43403;51.948;5.922;2022-08-06T13:27:01;1.08;;;0.70;;
57567;SDS011;43403;51.948;5.922;2022-08-06T13:29:33;2.10;;;0.73;;
57567;SDS011;43403;51.948;5.922;2022-08-06T13:32:23;6.07;;;0.80;;
57567;SDS011;43403;51.948;5.922;2022-08-06T13:35:05;2.00;;;0.80;;
57567;SDS011;43403;51.948;5.922;2022-08-06T13:37:50;3.17;;;0.80;;
57567;SDS011;43403;51.948;5.922;2022-08-06T13:40:45;2.00;;;0.80;;
57567;SDS011;43403;51.948;5.922;2022-08-06T13:43:44;2.20;;;0.93;;
57567;SDS011;43403;51.948;5.922;2022-08-06T13:46:24;1.88;;;1.20;;
57567;SDS011;43403;51.948;5.922;2022-08-06T13:48:57;2.17;;;0.88;;
57567;SDS011;43403;51.948;5.922;2022-08-06T13:51:27;1.55;;;0.80;;
57567;SDS011;43403;51.948;5.922;2022-08-06T13:54:00;1.90;;;0.80;;
57567;SDS011;43403;51.948;5.922;2022-08-06T13:56:44;3.63;;;1.02;;
57567;SDS011;43403;51.948;5.922;2022-08-06T13:59:17;1.83;;;0.82;;
57567;SDS011;43403;51.948;5.922;2022-08-06T14:01:46;3.35;;;1.00;;
57567;SDS011;43403;51.948;5.922;2022-08-06T14:04:14;3.53;;;0.90;;
57567;SDS011;43403;51.948;5.922;2022-08-06T14:06:44;4.35;;;1.00;;
57567;SDS011;43403;51.948;5.922;2022-08-06T14:09:14;1.95;;;0.85;;
57567;SDS011;43403;51.948;5.922;2022-08-06T14:11:46;1.33;;;0.93;;
57567;SDS011;43403;51.948;5.922;2022-08-06T14:14:19;2.25;;;0.77;;
57567;SDS011;43403;51.948;5.922;2022-08-06T14:16:48;2.63;;;0.80;;
57567;SDS011;43403;51.948;5.922;2022-08-06T14:19:15;3.25;;;1.10;;
57567;SDS011;43403;51.948;5.922;2022-08-06T14:22:02;1.52;;;0.75;;
57567;SDS011;43403;51.948;5.922;2022-08-06T14:24:29;3.90;;;0.90;;
57567;SDS011;43403;51.948;5.922;2022-08-06T14:27:04;1.58;;;0.70;;
57567;SDS011;43403;51.948;5.922;2022-08-06T14:29:51;1.50;;;0.80;;
57567;SDS011;43403;51.948;5.922;2022-08-06T14:32:38;2.03;;;0.80;;
57567;SDS011;43403;51.948;5.922;2022-08-06T14:35:06;1.83;;;0.88;;
57567;SDS011;43403;51.948;5.922;2022-08-06T14:37:33;2.05;;;0.80;;
57567;SDS011;43403;51.948;5.922;2022-08-06T14:40:17;1.60;;;0.70;;
57567;SDS011;43403;51.948;5.922;2022-08-06T14:43:27;3.10;;;0.77;;
57567;SDS011;43403;51.948;5.922;2022-08-06T14:46:22;1.75;;;0.93;;
57567;SDS011;43403;51.948;5.922;2022-08-06T14:48:51;2.05;;;0.80;;
57567;SDS011;43403;51.948;5.922;2022-08-06T14:51:23;1.15;;;0.70;;
57567;SDS011;43403;51.948;5.922;2022-08-06T14:54:03;2.25;;;0.77;;
57567;SDS011;43403;51.948;5.922;2022-08-06T14:56:39;0.80;;;0.70;;
57567;SDS011;43403;51.948;5.922;2022-08-06T14:59:11;1.50;;;1.00;;
57567;SDS011;43403;51.948;5.922;2022-08-06T15:01:38;1.42;;;0.80;;
57567;SDS011;43403;51.948;5.922;2022-08-06T15:04:05;0.93;;;0.80;;
57567;SDS011;43403;51.948;5.922;2022-08-06T15:06:48;4.10;;;1.00;;
57567;SDS011;43403;51.948;5.922;2022-08-06T15:09:19;4.07;;;1.00;;
57567;SDS011;43403;51.948;5.922;2022-08-06T15:12:06;1.98;;;0.90;;
57567;SDS011;43403;51.948;5.922;2022-08-06T15:14:36;2.90;;;1.00;;
57567;SDS011;43403;51.948;5.922;2022-08-06T15:17:03;4.28;;;0.80;;
57567;SDS011;43403;51.948;5.922;2022-08-06T15:19:50;2.05;;;0.80;;
57567;SDS011;43403;51.948;5.922;2022-08-06T15:22:19;5.75;;;1.17;;
57567;SDS011;43403;51.948;5.922;2022-08-06T15:25:01;3.17;;;0.82;;
57567;SDS011;43403;51.948;5.922;2022-08-06T15:27:47;2.83;;;0.85;;
57567;SDS011;43403;51.948;5.922;2022-08-06T15:30:15;1.02;;;0.70;;
57567;SDS011;43403;51.948;5.922;2022-08-06T15:32:42;1.15;;;0.85;;
57567;SDS011;43403;51.948;5.922;2022-08-06T15:35:22;1.08;;;0.70;;
57567;SDS011;43403;51.948;5.922;2022-08-06T15:38:09;2.38;;;0.85;;
57567;SDS011;43403;51.948;5.922;2022-08-06T15:40:37;1.55;;;0.93;;
57567;SDS011;43403;51.948;5.922;2022-08-06T15:43:07;2.08;;;0.93;;
57567;SDS011;43403;51.948;5.922;2022-08-06T15:45:39;2.15;;;0.90;;
57567;SDS011;43403;51.948;5.922;2022-08-06T15:50:55;1.35;;;0.90;;
57567;SDS011;43403;51.948;5.922;2022-08-06T15:53:42;2.58;;;1.10;;
57567;SDS011;43403;51.948;5.922;2022-08-06T15:56:23;2.28;;;1.30;;
57567;SDS011;43403;51.948;5.922;2022-08-06T15:59:04;4.60;;;1.25;;
57567;SDS011;43403;51.948;5.922;2022-08-06T16:01:38;2.15;;;1.17;;
57567;SDS011;43403;51.948;5.922;2022-08-06T16:04:27;2.85;;;1.00;;
57567;SDS011;43403;51.948;5.922;2022-08-06T16:06:53;2.10;;;1.35;;
57567;SDS011;43403;51.948;5.922;2022-08-06T16:09:22;3.13;;;1.23;;
57567;SDS011;43403;51.948;5.922;2022-08-06T16:11:55;1.75;;;1.25;;
57567;SDS011;43403;51.948;5.922;2022-08-06T16:14:23;1.70;;;1.20;;
57567;SDS011;43403;51.948;5.922;2022-08-06T16:17:02;5.35;;;1.20;;
57567;SDS011;43403;51.948;5.922;2022-08-06T16:19:34;2.53;;;1.10;;
57567;SDS011;43403;51.948;5.922;2022-08-06T16:22:15;3.05;;;1.40;;
57567;SDS011;43403;51.948;5.922;2022-08-06T16:24:43;3.47;;;1.25;;
57567;SDS011;43403;51.948;5.922;2022-08-06T16:27:10;2.33;;;1.25;;
57567;SDS011;43403;51.948;5.922;2022-08-06T16:29:57;1.40;;;1.10;;
57567;SDS011;43403;51.948;5.922;2022-08-06T16:32:23;2.60;;;1.33;;
57567;SDS011;43403;51.948;5.922;2022-08-06T16:34:51;3.97;;;1.17;;
57567;SDS011;43403;51.948;5.922;2022-08-06T16:37:24;4.15;;;1.45;;
57567;SDS011;43403;51.948;5.922;2022-08-06T16:40:13;2.28;;;1.00;;
57567;SDS011;43403;51.948;5.922;2022-08-06T16:42:41;1.65;;;1.00;;
57567;SDS011;43403;51.948;5.922;2022-08-06T16:45:08;2.35;;;1.27;;
57567;SDS011;43403;51.948;5.922;2022-08-06T16:47:40;2.00;;;1.15;;
57567;SDS011;43403;51.948;5.922;2022-08-06T16:50:28;2.05;;;1.00;;
57567;SDS011;43403;51.948;5.922;2022-08-06T16:53:03;2.95;;;2.03;;
57567;SDS011;43403;51.948;5.922;2022-08-06T16:55:54;3.60;;;2.28;;
57567;SDS011;43403;51.948;5.922;2022-08-06T16:58:21;2.90;;;1.10;;
57567;SDS011;43403;51.948;5.922;2022-08-06T17:01:01;3.70;;;0.90;;
57567;SDS011;43403;51.948;5.922;2022-08-06T17:03:49;1.70;;;1.10;;
57567;SDS011;43403;51.948;5.922;2022-08-06T17:06:23;1.25;;;1.08;;
57567;SDS011;43403;51.948;5.922;2022-08-06T17:09:10;3.75;;;1.95;;
57567;SDS011;43403;51.948;5.922;2022-08-06T17:11:44;4.07;;;2.40;;
57567;SDS011;43403;51.948;5.922;2022-08-06T17:14:24;2.10;;;1.30;;
57567;SDS011;43403;51.948;5.922;2022-08-06T17:16:52;2.85;;;1.42;;
57567;SDS011;43403;51.948;5.922;2022-08-06T17:19:19;2.70;;;1.15;;
57567;SDS011;43403;51.948;5.922;2022-08-06T17:21:46;2.00;;;1.20;;